Time;durP1;ratioP1;P1;durP2;ratioP2;P2;SDS_P1;SDS_P2;PMS_P1;PMS_P2;Temp;Humidity;BMP_temperature;BMP_pressure;BME280_temperature;BME280_humidity;BME280_pressure;Samples;Min_cycle;Max_cycle;Signal;HPM_P1;HPM_P2
2022/01/11 00:01:25;;;;;;;47.40;21.60;;;-1.30;99.90;-2.50;101915;;;;544270;257;24101;-77
2022/01/11 00:03:50;;;;;;;43.47;18.23;;;-1.30;99.90;-2.50;101913;;;;551879;254;24184;-78
2022/01/11 00:08:54;;;;;;;43.10;19.80;;;-1.20;99.90;-2.50;101914;;;;539087;260;24123;-77
2022/01/11 00:11:19;;;;;;;49.73;20.80;;;-1.20;99.90;-2.40;101912;;;;543519;260;25139;-78
2022/01/11 00:13:47;;;;;;;50.37;21.40;;;-1.20;99.90;-2.40;101924;;;;543446;260;24125;-78
2022/01/11 00:16:15;;;;;;;40.53;16.37;;;-1.20;99.90;-2.40;101929;;;;539150;260;24146;-77
2022/01/11 00:18:43;;;;;;;39.63;18.47;;;-1.10;99.90;-2.30;101918;;;;543182;257;24104;-76
2022/01/11 00:21:11;;;;;;;37.13;15.97;;;-1.10;99.90;-2.30;101919;;;;543361;260;24119;-75
2022/01/11 00:26:08;;;;;;;36.17;17.77;;;-1.00;99.90;-2.30;101922;;;;543203;260;24156;-77
2022/01/11 00:28:36;;;;;;;35.80;18.03;;;-1.10;99.90;-2.20;101917;;;;543280;260;25199;-77
2022/01/11 00:31:07;;;;;;;42.37;16.93;;;-1.00;99.90;-2.20;101923;;;;543280;260;24164;-79
2022/01/11 00:33:41;;;;;;;34.37;15.63;;;-0.90;99.90;-2.20;101923;;;;543332;260;24136;-76
2022/01/11 00:36:06;;;;;;;32.07;16.50;;;-1.00;99.90;-2.10;101930;;;;543016;257;24153;-79
2022/01/11 00:38:32;;;;;;;33.90;17.03;;;-0.90;99.90;-2.10;101934;;;;543226;256;24164;-78
2022/01/11 00:40:59;;;;;;;33.23;15.57;;;-0.90;99.90;-2.10;101931;;;;538433;260;24168;-78
2022/01/11 00:43:31;;;;;;;37.37;17.47;;;-0.80;99.90;-2.00;101934;;;;542923;260;24149;-78
2022/01/11 00:45:55;;;;;;;51.45;27.50;;;-0.80;99.90;-2.00;101927;;;;524631;265;34868;-77
2022/01/11 00:48:23;;;;;;;48.23;21.50;;;-0.80;99.90;-2.00;101934;;;;540981;259;24119;-77
2022/01/11 00:50:54;;;;;;;52.07;19.37;;;-0.80;99.90;-2.00;101944;;;;543014;257;24131;-78
2022/01/11 00:53:23;;;;;;;27.47;14.50;;;-0.80;99.90;-2.00;101946;;;;542775;259;24169;-77
2022/01/11 00:55:50;;;;;;;27.97;11.87;;;-0.80;99.90;-2.00;101945;;;;538456;260;24142;-78
2022/01/11 00:58:15;;;;;;;22.60;12.43;;;-0.70;99.90;-2.00;101941;;;;534244;263;24124;-77
2022/01/11 01:00:44;;;;;;;28.60;14.83;;;-0.70;99.90;-1.90;101943;;;;543305;257;24151;-77
2022/01/11 01:03:12;;;;;;;29.63;14.43;;;-0.70;99.90;-1.90;101948;;;;543386;260;24146;-77
2022/01/11 01:05:41;;;;;;;27.97;14.43;;;-0.70;99.90;-1.90;101943;;;;543433;260;24133;-77
2022/01/11 01:08:10;;;;;;;30.70;13.90;;;-0.70;99.90;-1.90;101946;;;;543337;258;24129;-77
2022/01/11 01:10:40;;;;;;;33.50;14.90;;;-0.70;99.90;-1.90;101939;;;;544629;260;24104;-77
2022/01/11 01:13:06;;;;;;;45.28;25.60;;;-0.70;99.90;-1.80;101950;;;;539574;260;35425;-77
2022/01/11 01:15:35;;;;;;;44.70;18.67;;;-0.60;99.90;-1.80;101945;;;;544002;258;24107;-78
2022/01/11 01:18:01;;;;;;;38.90;15.83;;;-0.60;99.90;-1.80;101942;;;;544152;260;24129;-77
2022/01/11 01:20:29;;;;;;;32.80;16.17;;;-0.60;99.90;-1.80;101950;;;;552267;259;24151;-77
2022/01/11 01:23:01;;;;;;;30.33;14.10;;;-0.60;99.90;-1.80;101955;;;;540338;260;24112;-77
2022/01/11 01:25:25;;;;;;;31.53;14.67;;;-0.60;99.90;-1.70;101953;;;;545063;258;24153;-77
2022/01/11 01:27:53;;;;;;;28.07;13.07;;;-0.50;99.90;-1.70;101951;;;;544841;260;24100;-77
2022/01/11 01:30:21;;;;;;;34.93;14.83;;;-0.50;99.90;-1.70;101945;;;;544810;260;24174;-75
2022/01/11 01:32:50;;;;;;;28.17;14.20;;;-0.50;99.90;-1.70;101953;;;;552509;257;25208;-77
2022/01/11 01:35:19;;;;;;;40.47;15.80;;;-0.50;99.90;-1.70;101958;;;;551708;256;24175;-76
2022/01/11 01:37:47;;;;;;;23.20;12.77;;;-0.50;99.90;-1.70;101956;;;;543598;260;24168;-76
2022/01/11 01:40:17;;;;;;;28.50;13.00;;;-0.50;99.90;-1.70;101958;;;;543669;260;24161;-79
2022/01/11 01:42:44;;;;;;;24.47;13.17;;;-0.50;99.90;-1.70;101963;;;;543953;260;24137;-76
2022/01/11 01:45:13;;;;;;;24.17;13.47;;;-0.50;99.90;-1.70;101960;;;;544067;260;24100;-76
2022/01/11 01:47:41;;;;;;;23.83;13.50;;;-0.50;99.90;-1.60;101967;;;;543411;260;24176;-79
2022/01/11 01:50:09;;;;;;;25.27;11.83;;;-0.50;99.90;-1.60;101966;;;;543400;260;24123;-77
2022/01/11 01:52:41;;;;;;;27.40;13.43;;;-0.40;99.90;-1.60;101961;;;;543380;260;24120;-78
2022/01/11 01:55:06;;;;;;;13.50;7.37;;;-0.40;99.90;-1.60;101961;;;;543301;259;24136;-79
2022/01/11 01:57:34;;;;;;;27.33;13.97;;;-0.40;99.90;-1.60;101964;;;;550957;254;24117;-78
2022/01/11 02:00:07;;;;;;;26.83;12.07;;;-0.40;99.90;-1.60;101963;;;;542989;260;24107;-78
2022/01/11 02:02:30;;;;;;;30.07;13.87;;;-0.40;99.90;-1.50;101962;;;;538172;260;24440;-77
2022/01/11 02:04:58;;;;;;;32.93;13.27;;;-0.40;99.90;-1.50;101957;;;;543038;260;24151;-79
2022/01/11 02:07:26;;;;;;;25.13;13.33;;;-0.40;99.90;-1.50;101961;;;;543170;260;24128;-77
2022/01/11 02:09:55;;;;;;;23.73;11.63;;;-0.30;99.90;-1.50;101956;;;;543014;260;24148;-78
2022/01/11 02:12:26;;;;;;;24.10;12.40;;;-0.30;99.90;-1.50;101962;;;;538720;260;24244;-77
2022/01/11 02:14:50;;;;;;;37.75;21.42;;;-0.30;99.90;-1.50;101961;;;;546256;255;35551;-80
2022/01/11 02:17:18;;;;;;;31.93;16.87;;;-0.30;99.90;-1.50;101956;;;;543430;260;24200;-78
2022/01/11 02:19:46;;;;;;;27.53;14.80;;;-0.30;99.90;-1.40;101956;;;;551546;258;24121;-79
2022/01/11 02:22:14;;;;;;;25.93;11.97;;;-0.30;99.90;-1.40;101959;;;;544683;260;24159;-78
2022/01/11 02:24:41;;;;;;;28.50;12.50;;;-0.20;99.90;-1.40;101964;;;;539996;260;24125;-77
2022/01/11 02:27:09;;;;;;;33.40;12.40;;;-0.20;99.90;-1.40;101966;;;;544131;260;24162;-78
2022/01/11 02:29:37;;;;;;;18.87;10.03;;;-0.20;99.90;-1.40;101962;;;;544003;260;24211;-76
2022/01/11 02:32:05;;;;;;;23.17;11.03;;;-0.20;99.90;-1.30;101965;;;;543825;260;24179;-77
2022/01/11 02:34:33;;;;;;;28.63;12.97;;;-0.20;99.90;-1.30;101965;;;;551669;259;24108;-77
2022/01/11 02:37:01;;;;;;;26.83;12.00;;;-0.10;99.90;-1.30;101967;;;;539526;260;24109;-77
2022/01/11 02:39:29;;;;;;;21.90;10.83;;;-0.10;99.90;-1.30;101973;;;;539330;260;24109;-77
2022/01/11 02:42:01;;;;;;;24.83;10.80;;;-0.10;99.90;-1.30;101968;;;;543610;260;24147;-78
2022/01/11 02:44:29;;;;;;;19.83;10.37;;;-0.10;99.90;-1.30;101969;;;;543622;259;24108;-76
2022/01/11 02:46:58;;;;;;;23.77;9.90;;;-0.10;99.90;-1.30;101967;;;;543493;260;24125;-77
2022/01/11 02:49:27;;;;;;;23.23;11.47;;;-0.10;99.90;-1.30;101960;;;;551307;253;24405;-75
2022/01/11 02:51:53;;;;;;;21.07;10.13;;;-0.10;99.90;-1.30;101969;;;;529907;264;24077;-76
2022/01/11 02:54:24;;;;;;;20.33;10.90;;;-0.10;99.90;-1.30;101979;;;;543608;260;24119;-74
2022/01/11 02:56:53;;;;;;;16.90;10.13;;;-0.10;99.90;-1.30;101972;;;;543392;259;24142;-75
2022/01/11 02:59:21;;;;;;;21.17;10.63;;;-0.20;99.90;-1.30;101974;;;;550620;259;24140;-77
2022/01/11 03:01:51;;;;;;;21.43;10.87;;;-0.20;99.90;-1.40;101968;;;;538824;260;25198;-77
2022/01/11 03:04:16;;;;;;;14.97;9.93;;;-0.30;99.90;-1.50;101976;;;;543018;260;24141;-77
2022/01/11 03:06:45;;;;;;;20.90;10.53;;;-0.40;99.90;-1.60;101976;;;;543141;260;24113;-76
2022/01/11 03:09:13;;;;;;;18.40;9.93;;;-0.50;99.90;-1.70;101975;;;;543355;260;24113;-76
2022/01/11 03:11:42;;;;;;;19.63;10.60;;;-0.70;99.90;-1.90;101970;;;;551286;258;24188;-76
2022/01/11 03:14:10;;;;;;;22.43;10.53;;;-0.70;99.90;-2.00;101974;;;;538803;260;24111;-76
2022/01/11 03:16:38;;;;;;;21.40;10.77;;;-0.80;99.90;-2.10;101970;;;;542976;260;24105;-76
2022/01/11 03:19:06;;;;;;;21.20;9.77;;;-0.90;99.90;-2.30;101968;;;;543154;260;24135;-76
2022/01/11 03:21:34;;;;;;;23.80;10.13;;;-1.10;99.90;-2.30;101976;;;;538289;260;24128;-76
2022/01/11 03:24:02;;;;;;;17.50;9.97;;;-1.20;99.90;-2.40;101974;;;;543143;260;24137;-77
2022/01/11 03:26:33;;;;;;;17.40;9.07;;;-1.30;99.90;-2.50;101970;;;;538381;260;25171;-77
2022/01/11 03:28:57;;;;;;;24.23;11.13;;;-1.30;99.90;-2.60;101970;;;;542769;259;24105;-78
2022/01/11 03:31:26;;;;;;;20.50;9.37;;;-1.40;99.90;-2.70;101961;;;;543353;258;24122;-76
2022/01/11 03:33:53;;;;;;;23.67;11.50;;;-1.50;99.90;-2.80;101977;;;;539523;260;24108;-76
2022/01/11 03:36:21;;;;;;;19.73;10.33;;;-1.60;99.90;-2.90;101966;;;;539743;260;28419;-76
2022/01/11 03:38:49;;;;;;;21.10;11.00;;;-1.70;99.90;-3.00;101980;;;;543821;260;24165;-77
2022/01/11 03:41:17;;;;;;;25.20;11.67;;;-1.70;99.90;-3.00;101978;;;;539425;260;24159;-77
2022/01/11 03:43:45;;;;;;;24.07;11.10;;;-1.80;99.90;-3.10;101987;;;;539352;260;24126;-77
2022/01/11 03:46:14;;;;;;;30.87;17.03;;;-2.00;99.90;-3.20;101980;;;;543443;260;24108;-76
2022/01/11 03:48:42;;;;;;;29.37;17.03;;;-2.00;99.90;-3.20;101973;;;;543615;260;24128;-76
2022/01/11 03:51:10;;;;;;;30.57;19.27;;;-2.00;99.90;-3.30;101985;;;;543349;260;24177;-76
2022/01/11 03:53:50;;;;;;;28.23;16.90;;;-2.00;99.90;-3.30;101983;;;;543412;260;25151;-76
2022/01/11 03:56:21;;;;;;;31.92;16.77;;;-2.10;99.90;-3.40;101975;;;;538499;260;35433;-76
2022/01/11 03:58:39;;;;;;;20.63;10.83;;;-2.10;99.90;-3.40;101976;;;;543604;260;24156;-77
2022/01/11 04:01:07;;;;;;;20.27;10.60;;;-2.20;99.90;-3.40;101972;;;;543610;260;24098;-77
2022/01/11 04:03:39;;;;;;;20.07;10.97;;;-2.20;99.90;-3.50;101971;;;;543610;260;24113;-78
2022/01/11 04:06:06;;;;;;;25.93;17.67;;;-2.20;99.90;-3.40;101969;;;;543713;256;24187;-78
2022/01/11 04:08:31;;;;;;;31.60;19.50;;;-2.20;99.90;-3.50;101967;;;;538322;260;25488;-77
2022/01/11 04:10:59;;;;;;;33.57;21.20;;;-2.30;99.90;-3.50;101973;;;;543364;260;24138;-75
2022/01/11 04:13:27;;;;;;;37.53;22.43;;;-2.30;99.90;-3.60;101981;;;;543378;260;24114;-77
2022/01/11 04:15:56;;;;;;;29.00;20.87;;;-2.30;99.90;-3.60;101970;;;;538652;260;24165;-76
2022/01/11 04:18:24;;;;;;;36.17;21.33;;;-2.30;99.90;-3.60;101970;;;;543136;260;24120;-78
2022/01/11 04:20:53;;;;;;;31.63;21.33;;;-2.40;99.90;-3.60;101976;;;;542990;260;24123;-76
2022/01/11 04:23:23;;;;;;;30.30;20.90;;;-2.40;99.90;-3.70;101982;;;;543170;260;24161;-77
2022/01/11 04:25:50;;;;;;;31.30;22.00;;;-2.40;99.90;-3.70;101971;;;;543065;260;24116;-76
2022/01/11 04:28:22;;;;;;;32.57;21.17;;;-2.40;99.90;-3.70;101977;;;;543198;260;24156;-76
2022/01/11 04:30:47;;;;;;;32.97;23.10;;;-2.40;99.90;-3.70;101983;;;;533643;264;24136;-77
2022/01/11 04:33:15;;;;;;;35.37;21.97;;;-2.50;99.90;-3.70;101976;;;;543118;258;24128;-77
2022/01/11 04:35:48;;;;;;;34.03;22.80;;;-2.50;99.90;-3.80;101971;;;;543135;260;24133;-76
2022/01/11 04:38:11;;;;;;;31.17;22.47;;;-2.50;99.90;-3.90;101967;;;;543085;260;24171;-77
2022/01/11 04:40:39;;;;;;;34.97;22.43;;;-2.60;99.90;-3.90;101966;;;;538448;260;24121;-77
2022/01/11 04:43:07;;;;;;;35.53;22.57;;;-2.60;99.90;-4.00;101960;;;;543397;258;24146;-77
2022/01/11 04:45:39;;;;;;;31.73;19.97;;;-2.70;99.90;-4.00;101966;;;;544360;260;24148;-76
2022/01/11 04:48:02;;;;;;;35.23;22.37;;;-2.70;99.90;-4.10;101961;;;;543683;260;24130;-77
2022/01/11 04:50:33;;;;;;;36.80;21.60;;;-2.80;99.90;-4.10;101972;;;;539476;260;24141;-77
2022/01/11 04:53:02;;;;;;;32.83;21.10;;;-2.90;99.90;-4.20;101964;;;;543515;260;24167;-77
2022/01/11 04:55:26;;;;;;;37.57;21.63;;;-2.90;99.90;-4.20;101969;;;;543328;260;24117;-77
2022/01/11 04:57:54;;;;;;;32.90;22.53;;;-2.90;99.90;-4.20;101969;;;;543584;257;24118;-78
2022/01/11 05:00:23;;;;;;;34.75;17.58;;;-3.00;99.90;-4.20;101972;;;;539066;260;35566;-79
2022/01/11 05:02:52;;;;;;;22.30;12.10;;;-3.00;99.90;-4.20;101966;;;;543639;260;24192;-77
2022/01/11 05:05:21;;;;;;;20.33;11.30;;;-3.00;99.90;-4.20;101966;;;;539444;257;24149;-78
2022/01/11 05:07:47;;;;;;;29.53;19.63;;;-3.00;99.90;-4.30;101964;;;;543446;260;24182;-77
2022/01/11 05:10:16;;;;;;;40.10;22.67;;;-3.00;99.90;-4.30;101963;;;;543669;260;24111;-78
2022/01/11 05:12:45;;;;;;;34.20;22.97;;;-3.00;99.90;-4.30;101970;;;;543642;260;24156;-77
2022/01/11 05:15:17;;;;;;;35.50;23.50;;;-3.00;99.90;-4.30;101958;;;;543684;260;24103;-79
2022/01/11 05:17:41;;;;;;;36.47;23.53;;;-3.00;99.90;-4.30;101972;;;;529660;264;28419;-79
2022/01/11 05:20:13;;;;;;;34.93;22.13;;;-3.00;99.90;-4.30;101970;;;;543029;257;24165;-77
2022/01/11 05:22:42;;;;;;;34.17;21.93;;;-3.00;99.90;-4.30;101974;;;;543048;256;24117;-77
2022/01/11 05:25:11;;;;;;;31.37;18.13;;;-3.00;99.90;-4.30;101984;;;;538490;260;35491;-77
2022/01/11 05:27:36;;;;;;;25.43;13.17;;;-3.00;99.90;-4.20;101985;;;;543267;257;24112;-78
2022/01/11 05:30:03;;;;;;;27.20;13.13;;;-3.00;99.90;-4.20;101991;;;;543448;260;24153;-77
2022/01/11 05:32:31;;;;;;;34.67;20.80;;;-2.90;99.90;-4.10;101986;;;;543407;260;24094;-78
2022/01/11 05:34:59;;;;;;;44.57;27.57;;;-2.80;99.90;-4.00;101988;;;;543391;260;24191;-78
2022/01/11 05:37:27;;;;;;;39.70;25.57;;;-2.70;99.90;-3.90;101998;;;;543426;260;24104;-78
2022/01/11 05:39:55;;;;;;;43.87;25.77;;;-2.60;99.90;-3.80;102001;;;;543441;260;24141;-78
2022/01/11 05:42:24;;;;;;;40.17;23.90;;;-2.50;99.90;-3.70;101988;;;;543401;260;24132;-77
2022/01/11 05:44:51;;;;;;;34.80;22.33;;;-2.50;99.90;-3.70;102001;;;;543373;260;24144;-78
2022/01/11 05:47:19;;;;;;;41.53;25.13;;;-2.40;99.90;-3.60;102001;;;;543372;260;24089;-79
2022/01/11 05:49:50;;;;;;;35.90;24.93;;;-2.30;99.90;-3.60;102003;;;;543436;260;24132;-77
2022/01/11 05:52:15;;;;;;;40.50;24.90;;;-2.30;99.90;-3.50;102007;;;;551083;254;24154;-78
2022/01/11 05:54:43;;;;;;;36.17;24.73;;;-2.30;99.90;-3.50;102001;;;;543854;258;24145;-77
2022/01/11 05:57:11;;;;;;;33.70;24.83;;;-2.20;99.90;-3.40;102003;;;;539924;260;24089;-76
2022/01/11 05:59:40;;;;;;;37.50;23.90;;;-2.10;99.90;-3.30;102007;;;;539661;260;24132;-77
2022/01/11 06:02:09;;;;;;;36.77;21.97;;;-2.00;99.90;-3.30;102010;;;;543892;260;24165;-77
2022/01/11 06:04:37;;;;;;;28.60;20.33;;;-2.00;99.90;-3.20;102009;;;;543648;260;24106;-77
2022/01/11 06:07:06;;;;;;;26.43;12.93;;;-1.90;99.90;-3.20;102013;;;;543522;260;24132;-76
2022/01/11 06:09:35;;;;;;;21.90;11.97;;;-1.90;99.90;-3.10;102013;;;;543853;260;24126;-77
2022/01/11 06:12:04;;;;;;;28.87;14.93;;;-1.80;99.90;-3.10;102010;;;;543889;260;25222;-76
2022/01/11 06:14:31;;;;;;;22.87;10.13;;;-1.80;99.90;-3.00;102020;;;;539378;260;24111;-76
2022/01/11 06:16:59;;;;;;;23.87;12.17;;;-1.80;99.90;-3.00;102023;;;;543650;260;24125;-77
2022/01/11 06:19:27;;;;;;;22.57;11.93;;;-1.70;99.90;-2.90;102025;;;;539344;260;24111;-77
2022/01/11 06:21:56;;;;;;;23.60;12.33;;;-1.60;99.90;-2.90;102018;;;;543658;260;24136;-78
2022/01/11 06:24:25;;;;;;;26.83;14.57;;;-1.60;99.90;-2.80;102028;;;;543674;260;24139;-76
2022/01/11 06:26:53;;;;;;;30.00;14.27;;;-1.50;99.90;-2.80;102033;;;;543621;260;24117;-77
2022/01/11 06:29:21;;;;;;;31.97;14.03;;;-1.50;99.90;-2.70;102039;;;;543649;260;24123;-78
2022/01/11 06:31:49;;;;;;;28.20;13.27;;;-1.50;99.90;-2.70;102039;;;;543513;260;24140;-76
2022/01/11 06:34:17;;;;;;;29.07;14.33;;;-1.40;99.90;-2.60;102047;;;;543461;260;24093;-77
2022/01/11 06:36:45;;;;;;;27.70;13.57;;;-1.40;99.90;-2.60;102051;;;;543443;260;24178;-77
2022/01/11 06:39:13;;;;;;;28.30;14.33;;;-1.40;99.90;-2.60;102052;;;;543747;260;24183;-75
2022/01/11 06:41:44;;;;;;;23.10;12.20;;;-1.30;99.90;-2.50;102062;;;;551620;260;24124;-78
2022/01/11 06:44:10;;;;;;;23.13;12.03;;;-1.30;99.90;-2.50;102066;;;;539391;260;24199;-76
2022/01/11 06:46:37;;;;;;;21.07;11.63;;;-1.20;99.90;-2.40;102068;;;;538869;260;24121;-76
2022/01/11 06:49:05;;;;;;;30.53;12.37;;;-1.20;99.90;-2.40;102077;;;;551524;260;24116;-76
2022/01/11 06:51:33;;;;;;;29.20;14.87;;;-1.10;99.90;-2.40;102068;;;;543474;260;24153;-76
2022/01/11 06:54:01;;;;;;;31.37;14.03;;;-1.10;99.90;-2.40;102078;;;;543696;260;24133;-76
2022/01/11 06:56:28;;;;;;;35.87;15.60;;;-1.10;99.90;-2.30;102083;;;;543892;260;24122;-76
2022/01/11 06:58:56;;;;;;;21.70;13.73;;;-1.10;99.90;-2.30;102076;;;;543486;260;24134;-76
2022/01/11 07:01:24;;;;;;;20.43;12.60;;;-1.10;99.90;-2.30;102082;;;;543175;260;24138;-77
2022/01/11 07:03:52;;;;;;;23.40;13.60;;;-1.00;99.90;-2.30;102086;;;;543113;260;24098;-76
2022/01/11 07:06:20;;;;;;;30.40;16.13;;;-1.00;99.90;-2.30;102087;;;;543336;259;24148;-76
2022/01/11 07:08:49;;;;;;;26.63;14.07;;;-1.00;99.90;-2.20;102104;;;;544211;260;24189;-76
2022/01/11 07:11:18;;;;;;;25.87;15.10;;;-0.90;99.90;-2.20;102100;;;;543906;260;24166;-76
2022/01/11 07:13:46;;;;;;;51.10;22.50;;;-0.90;99.90;-2.20;102099;;;;539581;260;24110;-77
2022/01/11 07:16:15;;;;;;;21.90;12.63;;;-0.90;99.90;-2.10;102102;;;;543589;260;24171;-77
2022/01/11 07:18:44;;;;;;;24.67;12.63;;;-0.80;99.90;-2.10;102097;;;;543679;260;24103;-76
2022/01/11 07:21:11;;;;;;;20.40;11.03;;;-0.90;99.90;-2.10;102114;;;;539629;260;24173;-77
2022/01/11 07:23:39;;;;;;;25.47;12.23;;;-0.80;99.90;-2.00;102104;;;;543855;260;24134;-77
2022/01/11 07:26:07;;;;;;;28.43;13.93;;;-0.80;99.90;-2.00;102117;;;;543672;260;24160;-77
2022/01/11 07:28:36;;;;;;;34.10;13.97;;;-0.70;99.90;-1.90;102109;;;;534163;264;24095;-79
2022/01/11 07:31:05;;;;;;;24.73;13.57;;;-0.70;99.90;-1.90;102109;;;;551575;258;24139;-78
2022/01/11 07:33:33;;;;;;;29.80;12.33;;;-0.70;99.90;-1.80;102109;;;;543633;260;24150;-77
2022/01/11 07:36:01;;;;;;;26.73;14.40;;;-0.60;99.90;-1.80;102108;;;;543568;260;24104;-78
2022/01/11 07:38:28;;;;;;;24.80;12.00;;;-0.60;99.90;-1.80;102120;;;;539365;260;24131;-78
2022/01/11 07:40:56;;;;;;;25.50;13.17;;;-0.50;99.90;-1.70;102131;;;;543667;260;24118;-77
2022/01/11 07:43:25;;;;;;;26.83;12.77;;;-0.40;99.90;-1.60;102122;;;;543463;260;24171;-79
2022/01/11 07:45:54;;;;;;;27.73;12.83;;;-0.40;99.90;-1.60;102129;;;;539061;260;25147;-77
2022/01/11 07:48:22;;;;;;;23.60;12.67;;;-0.40;99.90;-1.50;102120;;;;543374;260;24148;-77
2022/01/11 07:50:50;;;;;;;23.30;12.13;;;-0.30;99.90;-1.50;102122;;;;543388;260;24123;-78
2022/01/11 07:53:18;;;;;;;23.20;12.47;;;-0.30;99.90;-1.40;102141;;;;539018;260;24115;-77
2022/01/11 07:55:45;;;;;;;20.47;11.80;;;-0.20;99.90;-1.40;102131;;;;543385;260;24167;-77
2022/01/11 07:58:13;;;;;;;19.80;12.20;;;-0.20;99.90;-1.30;102129;;;;543377;260;24109;-77
2022/01/11 08:00:42;;;;;;;24.30;13.60;;;-0.10;99.90;-1.30;102136;;;;543476;260;24136;-77
2022/01/11 08:03:12;;;;;;;27.10;14.00;;;-0.10;99.90;-1.20;102140;;;;543045;260;24113;-77
2022/01/11 08:05:37;;;;;;;28.83;14.60;;;0.00;99.90;-1.10;102144;;;;543232;260;24135;-77
2022/01/11 08:08:05;;;;;;;42.88;24.33;;;0.10;99.90;-1.00;102147;;;;538351;260;35447;-78
2022/01/11 08:10:33;;;;;;;35.03;18.30;;;0.10;99.90;-1.00;102147;;;;550910;260;24106;-77
2022/01/11 08:13:08;;;;;;;31.63;16.53;;;0.20;99.90;-0.90;102150;;;;543196;260;25180;-78
2022/01/11 08:15:29;;;;;;;33.37;18.10;;;0.30;99.90;-0.80;102155;;;;543437;256;24165;-78
2022/01/11 08:17:57;;;;;;;34.60;16.60;;;0.40;99.90;-0.70;102162;;;;542383;256;24108;-77
2022/01/11 08:20:25;;;;;;;32.00;16.13;;;0.50;99.90;-0.60;102160;;;;544313;260;24116;-76
2022/01/11 08:22:54;;;;;;;42.50;21.97;;;0.60;99.90;-0.60;102163;;;;539150;260;24159;-76
2022/01/11 08:25:20;;;;;;;31.47;18.50;;;0.60;99.90;-0.50;102163;;;;543722;259;24132;-77
2022/01/11 08:27:52;;;;;;;31.03;17.13;;;0.70;99.90;-0.50;102163;;;;543592;260;24178;-77
2022/01/11 08:30:16;;;;;;;41.80;18.60;;;0.70;99.90;-0.40;102168;;;;543695;260;24133;-77
2022/01/11 08:32:44;;;;;;;37.83;20.03;;;0.80;99.90;-0.30;102172;;;;534045;264;24090;-77
2022/01/11 08:35:12;;;;;;;33.47;18.03;;;0.90;99.90;-0.30;102174;;;;546979;258;24122;-77
2022/01/11 08:37:40;;;;;;;32.83;18.50;;;1.00;99.90;-0.20;102173;;;;538964;260;24477;-77
2022/01/11 08:40:08;;;;;;;48.27;22.97;;;1.10;99.90;-0.10;102171;;;;543245;260;24164;-77
2022/01/11 08:42:36;;;;;;;39.77;17.37;;;1.10;99.90;0.00;102178;;;;543372;257;24145;-77
2022/01/11 08:45:04;;;;;;;46.30;20.93;;;1.20;99.90;0.00;102191;;;;538659;260;24108;-76
2022/01/11 08:47:32;;;;;;;44.53;19.33;;;1.20;99.90;0.10;102187;;;;543322;260;24113;-76
2022/01/11 08:50:03;;;;;;;38.70;23.17;;;1.30;99.90;0.10;102189;;;;538649;260;24094;-79
2022/01/11 08:52:31;;;;;;;42.23;23.80;;;1.40;99.90;0.10;102196;;;;534080;264;24098;-78
2022/01/11 08:54:57;;;;;;;44.43;22.23;;;1.40;99.90;0.10;102196;;;;538394;260;24158;-77
2022/01/11 08:57:25;;;;;;;44.00;22.93;;;1.40;99.90;0.20;102195;;;;550848;256;24128;-77
2022/01/11 08:59:53;;;;;;;36.93;21.13;;;1.40;99.90;0.20;102191;;;;538540;260;24169;-76
2022/01/11 09:02:21;;;;;;;35.30;18.77;;;1.50;99.90;0.30;102203;;;;543126;260;24172;-77
2022/01/11 09:04:51;;;;;;;43.22;27.75;;;1.50;99.90;0.40;102192;;;;538671;260;35452;-77
2022/01/11 09:07:17;;;;;;;49.60;24.50;;;1.60;99.90;0.40;102195;;;;543213;260;24157;-78
2022/01/11 09:09:47;;;;;;;46.33;24.00;;;1.70;99.90;0.50;102193;;;;538366;260;24117;-79
2022/01/11 09:12:14;;;;;;;46.23;22.77;;;1.70;99.90;0.60;102199;;;;538571;260;24181;-76
2022/01/11 09:14:43;;;;;;;42.80;23.53;;;1.80;99.90;0.60;102197;;;;538428;260;24141;-76
2022/01/11 09:17:08;;;;;;;48.83;27.00;;;1.80;99.90;0.60;102207;;;;550933;254;24153;-76
2022/01/11 09:19:37;;;;;;;56.43;26.37;;;1.80;99.90;0.60;102203;;;;543096;260;24145;-76
2022/01/11 09:22:04;;;;;;;81.97;39.57;;;1.90;99.90;0.70;102196;;;;538389;260;24201;-78
2022/01/11 09:24:35;;;;;;;63.03;28.67;;;1.90;99.90;0.70;102196;;;;543204;260;24140;-76
2022/01/11 09:27:04;;;;;;;56.37;28.53;;;1.90;99.90;0.80;102196;;;;551775;257;24247;-76
2022/01/11 09:29:28;;;;;;;41.27;22.37;;;2.00;99.90;0.80;102191;;;;543294;258;24174;-76
2022/01/11 09:31:57;;;;;;;44.20;23.07;;;2.00;99.90;0.80;102195;;;;529497;264;24155;-77
2022/01/11 09:34:24;;;;;;;40.90;22.13;;;2.00;99.90;0.80;102200;;;;528030;264;24200;-77
2022/01/11 09:36:55;;;;;;;43.87;21.30;;;2.00;99.90;0.80;102196;;;;554014;255;24103;-77
2022/01/11 09:39:20;;;;;;;38.90;21.10;;;2.10;99.90;0.90;102196;;;;530043;259;24089;-79
2022/01/11 09:41:48;;;;;;;36.83;21.30;;;2.10;99.90;0.90;102191;;;;543656;260;24056;-77
2022/01/11 09:44:20;;;;;;;41.17;20.20;;;2.10;99.90;0.90;102190;;;;543542;259;24165;-76
2022/01/11 09:46:45;;;;;;;44.37;22.73;;;2.10;99.90;0.90;102193;;;;551371;252;24233;-77
2022/01/11 09:49:15;;;;;;;42.07;22.17;;;2.10;99.90;1.00;102185;;;;528631;263;24159;-75
2022/01/11 09:51:40;;;;;;;42.17;20.67;;;2.20;99.90;1.10;102184;;;;533675;265;24088;-76
2022/01/11 09:54:08;;;;;;;41.93;22.27;;;2.20;99.90;1.10;102182;;;;551317;258;24183;-77
2022/01/11 09:56:39;;;;;;;39.93;22.30;;;2.30;99.90;1.20;102183;;;;538676;260;24097;-76
2022/01/11 09:59:04;;;;;;;38.07;20.67;;;2.40;99.90;1.30;102183;;;;543516;256;24118;-77
2022/01/11 10:01:36;;;;;;;42.17;20.37;;;2.40;99.90;1.30;102184;;;;543372;258;24117;-77
2022/01/11 10:04:04;;;;;;;44.83;29.55;;;2.50;99.90;1.40;102191;;;;546293;255;46469;-78
2022/01/11 10:06:31;;;;;;;43.93;24.37;;;2.60;99.90;1.50;102187;;;;543348;257;24109;-76
2022/01/11 10:09:16;;;;;;;47.43;20.77;;;2.70;99.90;1.60;102188;;;;541751;263;24075;-76
2022/01/11 10:11:42;;;;;;;37.87;20.93;;;2.70;99.90;1.60;102188;;;;542646;258;24128;-76
2022/01/11 10:14:22;;;;;;;47.73;21.57;;;2.80;99.90;1.70;102179;;;;543320;260;24133;-76
2022/01/11 10:16:50;;;;;;;37.27;21.37;;;2.80;99.90;1.70;102182;;;;543417;260;24125;-78
2022/01/11 10:19:24;;;;;;;43.67;23.07;;;2.90;99.90;1.80;102177;;;;543228;257;24156;-77
2022/01/11 10:21:54;;;;;;;44.20;21.83;;;2.90;99.90;1.80;102182;;;;551309;255;24112;-78
2022/01/11 10:24:39;;;;;;;44.03;23.30;;;3.00;99.90;1.80;102181;;;;543472;260;24136;-77
2022/01/11 10:27:06;;;;;;;46.37;24.90;;;3.00;99.90;1.90;102184;;;;533715;265;24077;-79
2022/01/11 10:29:40;;;;;;;51.33;26.90;;;3.00;99.90;1.90;102193;;;;533994;265;24163;-77
2022/01/11 10:32:23;;;;;;;55.23;27.40;;;3.10;99.90;1.90;102191;;;;543267;256;24159;-75
2022/01/11 10:34:51;;;;;;;63.43;27.93;;;3.00;99.90;2.00;102184;;;;543389;260;24168;-76
2022/01/11 10:37:33;;;;;;;59.27;27.43;;;3.10;99.90;2.00;102184;;;;550746;259;24157;-77
2022/01/11 10:40:04;;;;;;;63.40;28.00;;;3.10;99.90;2.00;102180;;;;543331;259;24205;-77
2022/01/11 10:42:33;;;;;;;57.10;30.00;;;3.20;99.90;2.10;102172;;;;551713;259;24153;-76
2022/01/11 10:45:06;;;;;;;71.00;31.83;;;3.20;99.90;2.10;102176;;;;544055;257;24119;-76
2022/01/11 10:47:40;;;;;;;63.83;30.63;;;3.20;99.90;2.00;102173;;;;543747;260;24124;-77
2022/01/11 10:50:07;;;;;;;57.53;28.23;;;3.20;99.90;2.10;102173;;;;551650;255;24153;-78
2022/01/11 10:52:35;;;;;;;69.90;31.67;;;3.20;99.90;2.10;102168;;;;550858;260;24163;-77
2022/01/11 10:55:03;;;;;;;58.90;29.63;;;3.20;99.90;2.10;102165;;;;551334;260;24127;-78
2022/01/11 10:57:37;;;;;;;57.97;30.20;;;3.20;99.90;2.10;102165;;;;551241;252;24156;-76
2022/01/11 11:00:11;;;;;;;53.57;27.40;;;3.30;99.90;2.10;102172;;;;543230;260;24152;-77
2022/01/11 11:02:40;;;;;;;48.57;26.10;;;3.20;99.90;2.10;102165;;;;547967;253;24139;-78
2022/01/11 11:05:14;;;;;;;47.47;27.17;;;3.30;99.90;2.10;102174;;;;538958;260;24212;-78
2022/01/11 11:07:42;;;;;;;54.33;29.80;;;3.20;99.90;2.20;102170;;;;551129;257;24120;-80